Time;durP1;ratioP1;P1;durP2;ratioP2;P2;SDS_P1;SDS_P2;PMS_P1;PMS_P2;Temp;Humidity;BMP_temperature;BMP_pressure;BME280_temperature;BME280_humidity;BME280_pressure;Samples;Min_cycle;Max_cycle;Signal;HPM_P1;HPM_P2
2024/01/10 00:00:48;;;;;;;72.27;25.30;;;;;;;;;;5054010;28;20204;-85
2024/01/10 00:03:35;;;;;;;70.20;24.00;;;;;;;;;;5053856;28;20595;-81
2024/01/10 00:06:02;;;;;;;70.83;24.87;;;;;;;;;;5053847;28;20203;-81
2024/01/10 00:08:31;;;;;;;70.87;23.10;;;;;;;;;;5053848;28;20200;-79
2024/01/10 00:10:58;;;;;;;74.83;26.63;;;;;;;;;;5053192;28;20250;-78
2024/01/10 00:13:27;;;;;;;64.87;23.83;;;;;;;;;;5052657;28;20274;-78
2024/01/10 00:15:55;;;;;;;67.00;22.77;;;;;;;;;;5052647;28;20236;-79
2024/01/10 00:18:22;;;;;;;76.67;24.30;;;;;;;;;;5052334;28;20214;-78
2024/01/10 00:20:53;;;;;;;68.20;24.37;;;;;;;;;;5052454;28;20207;-78
2024/01/10 00:23:21;;;;;;;84.80;27.77;;;;;;;;;;5052045;28;20211;-78
2024/01/10 00:25:48;;;;;;;75.47;26.30;;;;;;;;;;5052090;28;20200;-78
2024/01/10 00:28:18;;;;;;;83.90;28.57;;;;;;;;;;5052144;28;20265;-78
2024/01/10 00:30:47;;;;;;;93.40;25.50;;;;;;;;;;5052412;28;20216;-78
2024/01/10 00:33:15;;;;;;;66.13;23.03;;;;;;;;;;5050927;28;20239;-78
2024/01/10 00:35:42;;;;;;;62.47;23.27;;;;;;;;;;5052187;28;20235;-78
2024/01/10 00:38:10;;;;;;;80.90;25.93;;;;;;;;;;5051838;28;20207;-78
2024/01/10 00:40:37;;;;;;;79.97;22.77;;;;;;;;;;5052041;28;20214;-78
2024/01/10 00:43:04;;;;;;;83.03;25.77;;;;;;;;;;5050739;28;20297;-78
2024/01/10 00:45:31;;;;;;;70.23;25.03;;;;;;;;;;5051897;28;20215;-78
2024/01/10 00:47:58;;;;;;;80.40;27.57;;;;;;;;;;5052105;28;20192;-79
2024/01/10 00:50:26;;;;;;;79.90;27.13;;;;;;;;;;5051844;28;20218;-78
2024/01/10 00:52:53;;;;;;;89.37;27.30;;;;;;;;;;5051790;28;20835;-78
2024/01/10 00:55:21;;;;;;;84.13;28.73;;;;;;;;;;5051708;28;20207;-78
2024/01/10 00:57:48;;;;;;;94.23;28.77;;;;;;;;;;5051660;28;20196;-78
2024/01/10 01:00:15;;;;;;;78.83;26.97;;;;;;;;;;5051678;28;20200;-79
2024/01/10 01:02:42;;;;;;;67.23;24.43;;;;;;;;;;5051910;28;20231;-78
2024/01/10 01:05:09;;;;;;;76.73;27.00;;;;;;;;;;5051648;28;20204;-78
2024/01/10 01:07:37;;;;;;;76.50;25.63;;;;;;;;;;5051707;28;20204;-79
2024/01/10 01:10:05;;;;;;;70.40;26.50;;;;;;;;;;5052108;28;20214;-78
2024/01/10 01:12:32;;;;;;;66.07;25.13;;;;;;;;;;5051573;28;20214;-78
2024/01/10 01:14:59;;;;;;;76.53;26.07;;;;;;;;;;5051721;28;20216;-78
2024/01/10 01:17:26;;;;;;;83.27;26.87;;;;;;;;;;5053208;28;20212;-84
2024/01/10 01:19:54;;;;;;;76.77;25.43;;;;;;;;;;5052768;28;20211;-78
2024/01/10 01:22:21;;;;;;;67.47;24.90;;;;;;;;;;5051619;28;20231;-77
2024/01/10 01:24:48;;;;;;;70.97;25.97;;;;;;;;;;5051794;28;20270;-78
2024/01/10 01:27:15;;;;;;;74.90;27.20;;;;;;;;;;5051770;28;20192;-78
2024/01/10 01:29:43;;;;;;;76.03;27.53;;;;;;;;;;5051598;28;20210;-78
2024/01/10 01:32:10;;;;;;;68.40;25.73;;;;;;;;;;5051497;28;20207;-78
2024/01/10 01:34:37;;;;;;;86.07;27.23;;;;;;;;;;5050190;28;20202;-77
2024/01/10 01:37:05;;;;;;;73.57;24.70;;;;;;;;;;5052113;28;20259;-78
2024/01/10 01:39:32;;;;;;;77.27;27.47;;;;;;;;;;5055089;28;20216;-78
2024/01/10 01:41:59;;;;;;;77.90;26.00;;;;;;;;;;5055550;28;20196;-78
2024/01/10 01:44:26;;;;;;;83.83;27.67;;;;;;;;;;5055461;28;20549;-77
2024/01/10 01:46:54;;;;;;;82.63;27.47;;;;;;;;;;5055432;28;20203;-78
2024/01/10 01:49:21;;;;;;;84.77;26.90;;;;;;;;;;5055166;28;20964;-77
2024/01/10 01:51:48;;;;;;;76.77;26.80;;;;;;;;;;5054117;28;20216;-77
2024/01/10 01:54:15;;;;;;;77.27;26.97;;;;;;;;;;5037413;28;20200;-79
2024/01/10 01:56:43;;;;;;;65.47;26.37;;;;;;;;;;5055338;28;20258;-79
2024/01/10 01:59:11;;;;;;;84.30;27.07;;;;;;;;;;5053619;28;20196;-78
2024/01/10 02:01:38;;;;;;;74.57;26.10;;;;;;;;;;5055038;28;20210;-79
2024/01/10 02:04:06;;;;;;;67.50;27.37;;;;;;;;;;5055043;28;20227;-79
2024/01/10 02:06:34;;;;;;;80.70;26.07;;;;;;;;;;5055325;28;20302;-78
2024/01/10 02:09:03;;;;;;;71.57;25.80;;;;;;;;;;5054830;28;20200;-78
2024/01/10 02:11:31;;;;;;;79.20;28.37;;;;;;;;;;5053511;28;20679;-78
2024/01/10 02:13:58;;;;;;;68.40;25.87;;;;;;;;;;5054588;28;20645;-78
2024/01/10 02:16:25;;;;;;;70.50;26.03;;;;;;;;;;5054497;28;20256;-78
2024/01/10 02:18:52;;;;;;;65.40;25.63;;;;;;;;;;5054603;28;20266;-79
2024/01/10 02:21:22;;;;;;;70.47;24.40;;;;;;;;;;5054644;28;20204;-80
2024/01/10 02:23:49;;;;;;;68.07;25.27;;;;;;;;;;5055127;28;20283;-80
2024/01/10 02:26:17;;;;;;;65.23;23.97;;;;;;;;;;5053651;28;20212;-80
2024/01/10 02:28:45;;;;;;;71.77;23.37;;;;;;;;;;5037773;28;20532;-80
2024/01/10 02:31:12;;;;;;;63.53;22.60;;;;;;;;;;5054976;28;20200;-80
2024/01/10 02:33:39;;;;;;;76.47;26.10;;;;;;;;;;5055098;28;20208;-81
2024/01/10 02:36:06;;;;;;;101.63;29.20;;;;;;;;;;5053618;28;20240;-80
2024/01/10 02:38:33;;;;;;;66.77;25.90;;;;;;;;;;5054604;28;20196;-78
2024/01/10 02:41:02;;;;;;;78.20;25.33;;;;;;;;;;5054410;28;20226;-78
2024/01/10 02:43:30;;;;;;;76.43;27.80;;;;;;;;;;5054002;28;20200;-79
2024/01/10 02:45:58;;;;;;;65.37;24.20;;;;;;;;;;5053308;28;20219;-78
2024/01/10 02:48:25;;;;;;;71.17;24.90;;;;;;;;;;5052793;28;20200;-79
2024/01/10 02:50:54;;;;;;;63.10;24.60;;;;;;;;;;5051736;28;20265;-79
2024/01/10 02:53:21;;;;;;;71.87;25.30;;;;;;;;;;5052908;28;20192;-79
2024/01/10 02:55:49;;;;;;;64.07;24.77;;;;;;;;;;5053122;28;20200;-79
2024/01/10 02:58:17;;;;;;;71.20;25.87;;;;;;;;;;5053198;28;20215;-79
2024/01/10 03:00:44;;;;;;;65.37;25.07;;;;;;;;;;5053585;28;20253;-79
2024/01/10 03:03:11;;;;;;;76.77;29.17;;;;;;;;;;5053802;28;20192;-79
2024/01/10 03:05:38;;;;;;;66.73;25.13;;;;;;;;;;5053870;28;20200;-79
2024/01/10 03:08:06;;;;;;;64.97;25.23;;;;;;;;;;5053618;28;20291;-79
2024/01/10 03:10:33;;;;;;;62.67;22.80;;;;;;;;;;5054232;28;20208;-80
2024/01/10 03:13:01;;;;;;;74.07;24.43;;;;;;;;;;5053975;28;20196;-79
2024/01/10 03:15:28;;;;;;;63.43;23.40;;;;;;;;;;5053789;28;20200;-80
2024/01/10 03:17:55;;;;;;;75.53;26.13;;;;;;;;;;5053559;28;20239;-79
2024/01/10 03:20:22;;;;;;;77.03;24.93;;;;;;;;;;5053391;28;20223;-79
2024/01/10 03:22:50;;;;;;;63.63;23.37;;;;;;;;;;5053501;28;20262;-79
2024/01/10 03:25:17;;;;;;;66.80;24.30;;;;;;;;;;5053696;28;20249;-79
2024/01/10 03:27:44;;;;;;;67.77;23.00;;;;;;;;;;5053645;28;20216;-79
2024/01/10 03:30:11;;;;;;;72.20;25.53;;;;;;;;;;5053840;28;20204;-79
2024/01/10 03:32:39;;;;;;;75.53;24.33;;;;;;;;;;5053912;28;20215;-79
2024/01/10 03:35:08;;;;;;;70.47;23.00;;;;;;;;;;5054509;28;20314;-80
2024/01/10 03:37:35;;;;;;;68.60;23.57;;;;;;;;;;5053524;28;20353;-80
2024/01/10 03:40:03;;;;;;;56.40;24.00;;;;;;;;;;5053419;28;20216;-79
2024/01/10 03:42:30;;;;;;;58.63;23.73;;;;;;;;;;5053346;28;20654;-79
2024/01/10 03:44:57;;;;;;;74.33;23.90;;;;;;;;;;5052863;28;20231;-79
2024/01/10 03:47:24;;;;;;;72.53;27.57;;;;;;;;;;5052840;28;20668;-78
2024/01/10 03:49:51;;;;;;;66.50;25.63;;;;;;;;;;5053151;28;20728;-79
2024/01/10 03:52:19;;;;;;;62.57;22.47;;;;;;;;;;5052913;28;20214;-78
2024/01/10 03:54:46;;;;;;;62.77;24.40;;;;;;;;;;5053149;28;20192;-78
2024/01/10 03:57:13;;;;;;;71.07;24.63;;;;;;;;;;5052760;28;20225;-79
2024/01/10 03:59:40;;;;;;;59.50;23.47;;;;;;;;;;5052814;28;20699;-79
2024/01/10 04:02:07;;;;;;;65.23;22.23;;;;;;;;;;5053680;28;20204;-79
2024/01/10 04:04:37;;;;;;;64.53;24.07;;;;;;;;;;5052664;28;20262;-78
2024/01/10 04:07:06;;;;;;;59.53;22.63;;;;;;;;;;5052650;28;20634;-79
2024/01/10 04:09:33;;;;;;;55.47;21.33;;;;;;;;;;5051283;28;20195;-79
2024/01/10 04:12:00;;;;;;;67.43;25.23;;;;;;;;;;5052673;28;20211;-78
2024/01/10 04:14:27;;;;;;;54.63;21.57;;;;;;;;;;5051179;28;20204;-78
2024/01/10 04:16:54;;;;;;;56.23;23.20;;;;;;;;;;5052380;28;20231;-79
2024/01/10 04:19:21;;;;;;;65.00;23.50;;;;;;;;;;5052156;28;20208;-79
2024/01/10 04:21:49;;;;;;;61.90;23.47;;;;;;;;;;5052326;28;20196;-79
2024/01/10 04:24:16;;;;;;;65.90;24.53;;;;;;;;;;5052254;28;20212;-79
2024/01/10 04:26:43;;;;;;;45.50;19.37;;;;;;;;;;5052343;28;20208;-78
2024/01/10 04:29:10;;;;;;;76.50;24.63;;;;;;;;;;5051908;28;20714;-78
2024/01/10 04:31:38;;;;;;;56.57;23.63;;;;;;;;;;5065354;28;20207;-78
2024/01/10 04:34:05;;;;;;;79.53;24.57;;;;;;;;;;5071960;28;20240;-78
2024/01/10 04:36:33;;;;;;;60.77;25.27;;;;;;;;;;5072257;28;20252;-78
2024/01/10 04:38:59;;;;;;;86.47;26.57;;;;;;;;;;5072117;28;20286;-80
2024/01/10 04:41:27;;;;;;;67.40;26.27;;;;;;;;;;5071892;28;20195;-79
2024/01/10 04:43:54;;;;;;;66.30;23.73;;;;;;;;;;5071894;28;20211;-79
2024/01/10 04:46:21;;;;;;;74.60;25.87;;;;;;;;;;5071720;28;20524;-80
2024/01/10 04:48:48;;;;;;;85.50;27.00;;;;;;;;;;5071996;28;20207;-80
2024/01/10 04:51:16;;;;;;;72.63;26.57;;;;;;;;;;5069876;28;20211;-81
2024/01/10 04:53:43;;;;;;;82.40;28.00;;;;;;;;;;5066590;28;20203;-80
2024/01/10 04:56:10;;;;;;;77.20;28.50;;;;;;;;;;5071759;28;20240;-81
2024/01/10 04:58:37;;;;;;;73.67;25.83;;;;;;;;;;5069734;28;20220;-80
2024/01/10 05:01:05;;;;;;;70.30;23.67;;;;;;;;;;5067304;28;20208;-81
2024/01/10 05:03:32;;;;;;;68.93;24.63;;;;;;;;;;5062330;28;20210;-79
2024/01/10 05:06:00;;;;;;;84.50;26.77;;;;;;;;;;5060509;28;20211;-81
2024/01/10 05:08:27;;;;;;;71.40;26.07;;;;;;;;;;5062211;28;20235;-78
2024/01/10 05:10:55;;;;;;;74.83;26.97;;;;;;;;;;5051505;28;20594;-78
2024/01/10 05:13:22;;;;;;;70.73;25.60;;;;;;;;;;5058942;28;20227;-80
2024/01/10 05:15:49;;;;;;;80.83;26.83;;;;;;;;;;5058119;28;20243;-80
2024/01/10 05:18:16;;;;;;;71.47;26.53;;;;;;;;;;5070803;28;20580;-80
2024/01/10 05:20:44;;;;;;;63.63;24.53;;;;;;;;;;5057636;28;20247;-80
2024/01/10 05:23:11;;;;;;;71.63;26.73;;;;;;;;;;5058285;28;20223;-80
2024/01/10 05:25:39;;;;;;;71.40;24.47;;;;;;;;;;5071438;28;20258;-80
2024/01/10 05:28:06;;;;;;;76.70;26.80;;;;;;;;;;5070551;28;20227;-80
2024/01/10 05:30:34;;;;;;;69.43;25.23;;;;;;;;;;5070111;28;20296;-79
2024/01/10 05:33:01;;;;;;;70.60;26.30;;;;;;;;;;5071203;28;20318;-80
2024/01/10 05:35:28;;;;;;;83.37;29.03;;;;;;;;;;5069383;28;20247;-79
2024/01/10 05:37:55;;;;;;;78.87;27.87;;;;;;;;;;5071164;28;20238;-80
2024/01/10 05:40:23;;;;;;;92.63;29.80;;;;;;;;;;5070540;28;20235;-79
2024/01/10 05:42:50;;;;;;;84.43;29.37;;;;;;;;;;5070596;28;20254;-79
2024/01/10 05:45:18;;;;;;;102.60;35.43;;;;;;;;;;5069630;28;20223;-79
2024/01/10 05:47:45;;;;;;;77.00;28.83;;;;;;;;;;5070448;28;20254;-79
2024/01/10 05:50:12;;;;;;;81.73;27.87;;;;;;;;;;5069876;28;20283;-79
2024/01/10 05:52:40;;;;;;;63.13;24.27;;;;;;;;;;5070465;28;20229;-78
2024/01/10 05:55:08;;;;;;;75.07;26.40;;;;;;;;;;5068894;28;20230;-79
2024/01/10 05:57:38;;;;;;;80.37;27.03;;;;;;;;;;5071075;28;20648;-79
2024/01/10 06:00:09;;;;;;;75.93;26.03;;;;;;;;;;5071102;28;20215;-79
2024/01/10 06:02:39;;;;;;;79.73;26.60;;;;;;;;;;5070386;28;20289;-79
2024/01/10 06:05:11;;;;;;;69.67;27.70;;;;;;;;;;5070472;28;20231;-78
2024/01/10 06:07:38;;;;;;;71.23;26.27;;;;;;;;;;5069301;28;20227;-79
2024/01/10 06:10:06;;;;;;;82.87;28.47;;;;;;;;;;5069950;28;20220;-79
2024/01/10 06:12:33;;;;;;;70.47;25.93;;;;;;;;;;5069023;28;20231;-79
2024/01/10 06:15:01;;;;;;;76.63;28.73;;;;;;;;;;5070490;28;20234;-78
2024/01/10 06:17:28;;;;;;;68.30;24.03;;;;;;;;;;5068888;28;20242;-79
2024/01/10 06:19:55;;;;;;;71.47;26.27;;;;;;;;;;5070935;28;20199;-79
2024/01/10 06:22:24;;;;;;;73.83;24.63;;;;;;;;;;5053223;28;20199;-78
2024/01/10 06:24:55;;;;;;;72.23;26.13;;;;;;;;;;5072734;28;20548;-78
2024/01/10 06:27:22;;;;;;;79.33;25.53;;;;;;;;;;5074859;28;20207;-78
2024/01/10 06:29:50;;;;;;;62.20;22.07;;;;;;;;;;5074674;28;20219;-78
2024/01/10 06:32:16;;;;;;;78.23;28.37;;;;;;;;;;5073647;28;20195;-79
2024/01/10 06:34:44;;;;;;;75.83;28.53;;;;;;;;;;5073602;28;20292;-78
2024/01/10 06:37:11;;;;;;;80.73;27.60;;;;;;;;;;5074017;28;20612;-78
2024/01/10 06:39:38;;;;;;;79.40;26.57;;;;;;;;;;5073893;28;20234;-78
2024/01/10 06:42:06;;;;;;;83.20;26.30;;;;;;;;;;5074053;28;20208;-78
2024/01/10 06:44:33;;;;;;;71.60;24.80;;;;;;;;;;5074220;28;20215;-79
2024/01/10 06:47:00;;;;;;;66.60;23.67;;;;;;;;;;5074060;28;20207;-79
2024/01/10 06:49:28;;;;;;;67.33;22.20;;;;;;;;;;5073972;28;20265;-78
2024/01/10 06:51:55;;;;;;;68.53;24.53;;;;;;;;;;5074363;28;20278;-79
2024/01/10 06:54:22;;;;;;;69.13;26.27;;;;;;;;;;5073984;28;20199;-78
2024/01/10 06:56:49;;;;;;;83.83;27.00;;;;;;;;;;5074268;28;20210;-78
2024/01/10 06:59:16;;;;;;;71.30;24.10;;;;;;;;;;5073826;28;20299;-78
2024/01/10 07:01:43;;;;;;;83.33;33.00;;;;;;;;;;5074165;28;20660;-79
2024/01/10 07:04:10;;;;;;;73.37;30.33;;;;;;;;;;5073943;28;20655;-79
2024/01/10 07:06:37;;;;;;;72.17;26.93;;;;;;;;;;5073928;28;20207;-78
2024/01/10 07:09:05;;;;;;;76.30;26.70;;;;;;;;;;5073528;28;20211;-79
2024/01/10 07:11:32;;;;;;;65.93;24.60;;;;;;;;;;5073912;28;20221;-78
2024/01/10 07:14:00;;;;;;;59.77;23.57;;;;;;;;;;5073611;28;20203;-78
2024/01/10 07:16:28;;;;;;;68.20;24.43;;;;;;;;;;5072717;28;20529;-78
2024/01/10 07:18:55;;;;;;;68.20;23.77;;;;;;;;;;5073615;28;20235;-78
2024/01/10 07:21:22;;;;;;;61.13;23.70;;;;;;;;;;5073695;28;20218;-78
2024/01/10 07:23:50;;;;;;;64.50;24.50;;;;;;;;;;5073283;28;20556;-79
2024/01/10 07:26:17;;;;;;;61.87;24.00;;;;;;;;;;5073325;28;20207;-79
2024/01/10 07:28:44;;;;;;;66.53;25.23;;;;;;;;;;5073133;28;20211;-79
2024/01/10 07:31:11;;;;;;;60.37;22.70;;;;;;;;;;5073288;28;20213;-79
2024/01/10 07:33:39;;;;;;;62.90;22.93;;;;;;;;;;5073385;28;20212;-78
2024/01/10 07:36:07;;;;;;;72.50;24.07;;;;;;;;;;5072121;28;20300;-79
2024/01/10 07:38:34;;;;;;;74.43;24.67;;;;;;;;;;5072732;28;20722;-79
2024/01/10 07:41:01;;;;;;;77.00;28.63;;;;;;;;;;5073021;28;20265;-79
2024/01/10 07:43:28;;;;;;;71.73;26.27;;;;;;;;;;5073222;28;20264;-79
2024/01/10 07:45:55;;;;;;;78.90;28.87;;;;;;;;;;5072902;28;20698;-79
2024/01/10 07:48:23;;;;;;;70.90;24.17;;;;;;;;;;5072927;28;20595;-79
2024/01/10 07:50:50;;;;;;;58.97;22.60;;;;;;;;;;5072851;28;20187;-79
2024/01/10 07:53:17;;;;;;;75.53;25.40;;;;;;;;;;5072694;28;20278;-79
2024/01/10 07:55:44;;;;;;;80.13;27.97;;;;;;;;;;5072430;28;20253;-79
2024/01/10 07:58:11;;;;;;;52.63;21.77;;;;;;;;;;5072832;28;20219;-78
2024/01/10 08:00:38;;;;;;;63.47;23.13;;;;;;;;;;5072766;28;20201;-79
2024/01/10 08:03:06;;;;;;;68.63;26.37;;;;;;;;;;5072605;28;20207;-78
2024/01/10 08:05:33;;;;;;;80.50;26.80;;;;;;;;;;5072532;28;20233;-78
2024/01/10 08:08:01;;;;;;;64.97;24.13;;;;;;;;;;5072467;28;20199;-78
2024/01/10 08:10:28;;;;;;;60.23;20.90;;;;;;;;;;5072176;28;20211;-79
2024/01/10 08:12:56;;;;;;;67.17;26.23;;;;;;;;;;5072474;28;20226;-79
2024/01/10 08:15:23;;;;;;;80.73;28.80;;;;;;;;;;5072443;28;20198;-79
2024/01/10 08:17:51;;;;;;;85.97;27.90;;;;;;;;;;5072401;28;20219;-78
2024/01/10 08:20:20;;;;;;;76.23;29.47;;;;;;;;;;5070969;28;20678;-79
2024/01/10 08:22:48;;;;;;;89.07;30.63;;;;;;;;;;5072641;28;21009;-79
2024/01/10 08:25:15;;;;;;;61.07;24.63;;;;;;;;;;5072770;28;20648;-79
2024/01/10 08:27:45;;;;;;;88.83;29.67;;;;;;;;;;5072708;28;20902;-79
2024/01/10 08:30:12;;;;;;;65.03;25.53;;;;;;;;;;5072188;28;20199;-79
2024/01/10 08:32:39;;;;;;;62.23;24.13;;;;;;;;;;5072394;28;20214;-79
2024/01/10 08:35:08;;;;;;;95.37;30.80;;;;;;;;;;5071834;28;20327;-78
2024/01/10 08:37:37;;;;;;;84.87;29.80;;;;;;;;;;5072321;28;20203;-76
2024/01/10 08:40:11;;;;;;;80.63;30.13;;;;;;;;;;5072252;28;20629;-77
2024/01/10 08:42:39;;;;;;;68.00;26.67;;;;;;;;;;5072402;28;20202;-79
2024/01/10 08:45:07;;;;;;;65.27;25.77;;;;;;;;;;5071936;28;20260;-77
2024/01/10 08:47:36;;;;;;;93.83;31.37;;;;;;;;;;5070499;28;20626;-77
2024/01/10 08:50:08;;;;;;;71.87;26.73;;;;;;;;;;5071791;28;20204;-78
2024/01/10 08:52:37;;;;;;;84.23;30.37;;;;;;;;;;5071141;28;20195;-77
2024/01/10 08:55:06;;;;;;;65.17;24.97;;;;;;;;;;5072052;28;20215;-79
2024/01/10 08:57:38;;;;;;;61.90;26.13;;;;;;;;;;5071815;28;20741;-77
2024/01/10 09:00:07;;;;;;;64.73;27.70;;;;;;;;;;5071475;28;20222;-79
2024/01/10 09:02:36;;;;;;;79.60;28.90;;;;;;;;;;5071897;28;20222;-76
2024/01/10 09:05:04;;;;;;;68.43;27.03;;;;;;;;;;5071721;28;20196;-78
2024/01/10 09:07:32;;;;;;;60.17;22.27;;;;;;;;;;5071758;28;20214;-79
2024/01/10 09:09:59;;;;;;;56.23;23.27;;;;;;;;;;5071527;28;20199;-76
2024/01/10 09:12:28;;;;;;;70.53;29.17;;;;;;;;;;5071574;28;20206;-76
2024/01/10 09:14:55;;;;;;;61.80;25.17;;;;;;;;;;5070419;28;20208;-79
2024/01/10 09:17:22;;;;;;;70.77;29.37;;;;;;;;;;5071667;28;20534;-79
2024/01/10 09:19:50;;;;;;;79.20;28.33;;;;;;;;;;5071401;28;20281;-78
2024/01/10 09:22:17;;;;;;;78.50;29.10;;;;;;;;;;5071514;28;20625;-78
2024/01/10 09:24:44;;;;;;;73.20;30.13;;;;;;;;;;5071507;28;20205;-79
2024/01/10 09:27:12;;;;;;;79.53;27.80;;;;;;;;;;5071294;28;20207;-79
2024/01/10 09:29:39;;;;;;;86.00;32.03;;;;;;;;;;5071712;28;20230;-78
2024/01/10 09:32:06;;;;;;;76.63;30.27;;;;;;;;;;5071325;28;20225;-79
2024/01/10 09:34:33;;;;;;;82.53;31.40;;;;;;;;;;5071244;28;20245;-78
2024/01/10 09:37:01;;;;;;;81.77;30.63;;;;;;;;;;5071395;28;20196;-79
2024/01/10 09:39:28;;;;;;;86.47;33.57;;;;;;;;;;5069782;28;20750;-79
2024/01/10 09:41:57;;;;;;;80.07;31.73;;;;;;;;;;5071125;28;20219;-78
2024/01/10 09:44:24;;;;;;;80.67;30.80;;;;;;;;;;5070114;28;20214;-79
2024/01/10 09:46:53;;;;;;;66.13;23.60;;;;;;;;;;5071323;28;20536;-78
2024/01/10 09:49:25;;;;;;;71.13;29.67;;;;;;;;;;5070108;28;20191;-79
2024/01/10 09:52:01;;;;;;;90.83;34.63;;;;;;;;;;5071420;28;20617;-79
2024/01/10 09:54:31;;;;;;;88.77;33.53;;;;;;;;;;5071025;28;20211;-78
2024/01/10 09:56:58;;;;;;;90.60;33.67;;;;;;;;;;5071041;28;20202;-78
2024/01/10 09:59:25;;;;;;;96.40;33.43;;;;;;;;;;5072337;28;20219;-79
2024/01/10 10:01:53;;;;;;;71.70;29.63;;;;;;;;;;5075129;28;20211;-78
2024/01/10 10:04:20;;;;;;;153.93;52.63;;;;;;;;;;5073716;28;20261;-79
2024/01/10 10:06:48;;;;;;;194.77;64.70;;;;;;;;;;5073716;28;20212;-77
2024/01/10 10:09:16;;;;;;;117.53;42.77;;;;;;;;;;5074840;28;20208;-79
2024/01/10 10:11:43;;;;;;;145.60;51.57;;;;;;;;;;5073756;28;20199;-79
2024/01/10 10:14:15;;;;;;;95.93;34.90;;;;;;;;;;5074523;28;20191;-77
2024/01/10 10:16:43;;;;;;;76.57;30.13;;;;;;;;;;5074950;28;20203;-78
2024/01/10 10:19:12;;;;;;;92.70;32.97;;;;;;;;;;5074565;28;20234;-79
2024/01/10 10:21:47;;;;;;;82.03;31.10;;;;;;;;;;5073981;28;20207;-77
2024/01/10 10:24:14;;;;;;;72.27;28.60;;;;;;;;;;5073094;28;20219;-79
2024/01/10 10:26:45;;;;;;;81.23;30.80;;;;;;;;;;5074714;28;20187;-78
2024/01/10 10:29:12;;;;;;;93.63;33.53;;;;;;;;;;5074132;28;20207;-77
2024/01/10 10:31:39;;;;;;;89.90;33.50;;;;;;;;;;5074588;28;20207;-78
2024/01/10 10:34:06;;;;;;;78.53;32.03;;;;;;;;;;5074326;28;20210;-79
2024/01/10 10:36:34;;;;;;;82.17;28.83;;;;;;;;;;5074139;28;20239;-78
2024/01/10 10:39:03;;;;;;;90.87;32.57;;;;;;;;;;5074146;28;20228;-77
2024/01/10 10:41:32;;;;;;;86.27;32.73;;;;;;;;;;5074116;28;20199;-76
2024/01/10 10:44:00;;;;;;;71.40;29.87;;;;;;;;;;5074249;28;20215;-77
2024/01/10 10:46:27;;;;;;;99.10;36.33;;;;;;;;;;5072918;28;20210;-79
2024/01/10 10:49:00;;;;;;;81.17;31.77;;;;;;;;;;5074904;28;20195;-76
2024/01/10 10:51:33;;;;;;;83.97;30.73;;;;;;;;;;5074167;28;20207;-79
2024/01/10 10:54:01;;;;;;;89.13;32.07;;;;;;;;;;5074177;28;20306;-79
2024/01/10 10:56:34;;;;;;;90.87;34.63;;;;;;;;;;5072508;28;20199;-79
2024/01/10 10:59:01;;;;;;;81.47;31.00;;;;;;;;;;5073919;28;20579;-79
2024/01/10 11:01:29;;;;;;;86.60;31.60;;;;;;;;;;5072663;28;20590;-79
2024/01/10 11:03:57;;;;;;;87.73;33.23;;;;;;;;;;5074261;28;20195;-76
2024/01/10 11:06:24;;;;;;;89.53;32.83;;;;;;;;;;5073816;28;20216;-78
2024/01/10 11:09:04;;;;;;;81.50;34.60;;;;;;;;;;5073936;28;20223;-79
2024/01/10 11:11:58;;;;;;;91.07;34.43;;;;;;;;;;5072267;28;20313;-78
2024/01/10 11:15:04;;;;;;;98.47;33.07;;;;;;;;;;5073379;28;20202;-79
2024/01/10 11:17:40;;;;;;;83.80;30.27;;;;;;;;;;5031367;28;20243;-78
2024/01/10 11:20:30;;;;;;;78.57;30.97;;;;;;;;;;5031462;28;20243;-79
2024/01/10 11:23:27;;;;;;;86.23;31.70;;;;;;;;;;5015401;28;20266;-79
2024/01/10 11:25:54;;;;;;;76.53;28.10;;;;;;;;;;5030927;28;20237;-78
2024/01/10 11:28:25;;;;;;;79.90;33.63;;;;;;;;;;5030967;28;20193;-78
2024/01/10 11:30:53;;;;;;;69.97;26.90;;;;;;;;;;5014899;28;20205;-78
2024/01/10 11:33:41;;;;;;;81.27;31.17;;;;;;;;;;5014509;28;20212;-79
2024/01/10 11:36:16;;;;;;;75.33;29.63;;;;;;;;;;5030883;28;20230;-79
2024/01/10 11:38:53;;;;;;;67.17;26.93;;;;;;;;;;5014553;28;20716;-79
2024/01/10 11:41:25;;;;;;;61.27;26.77;;;;;;;;;;5030936;28;20258;-79
2024/01/10 11:44:28;;;;;;;65.87;25.27;;;;;;;;;;5030880;28;20200;-79
2024/01/10 11:46:58;;;;;;;72.30;28.43;;;;;;;;;;5030852;28;20220;-78
2024/01/10 11:49:25;;;;;;;73.07;28.30;;;;;;;;;;5030681;28;20205;-79
2024/01/10 11:51:56;;;;;;;75.23;32.07;;;;;;;;;;5056832;28;20214;-78
2024/01/10 11:54:42;;;;;;;62.93;26.33;;;;;;;;;;5072961;28;20203;-79
2024/01/10 11:57:14;;;;;;;72.40;26.57;;;;;;;;;;5072742;28;20294;-79
2024/01/10 11:59:43;;;;;;;67.27;27.70;;;;;;;;;;5073003;28;20215;-79
2024/01/10 12:02:10;;;;;;;65.27;26.27;;;;;;;;;;5072784;28;20199;-78
2024/01/10 12:04:38;;;;;;;82.40;30.80;;;;;;;;;;5072941;28;20215;-78
2024/01/10 12:07:15;;;;;;;73.63;29.73;;;;;;;;;;5072836;28;20203;-79
2024/01/10 12:09:43;;;;;;;88.90;30.93;;;;;;;;;;5071433;28;20210;-79
2024/01/10 12:12:13;;;;;;;73.60;29.47;;;;;;;;;;5072770;28;20207;-79
2024/01/10 12:14:43;;;;;;;83.37;30.43;;;;;;;;;;5071252;28;20199;-79
2024/01/10 12:17:10;;;;;;;86.23;34.00;;;;;;;;;;5072587;28;20207;-78
2024/01/10 12:19:38;;;;;;;83.10;31.23;;;;;;;;;;5072218;28;20692;-78
2024/01/10 12:22:05;;;;;;;84.57;30.80;;;;;;;;;;5071832;28;20204;-78
2024/01/10 12:24:44;;;;;;;82.23;30.13;;;;;;;;;;5072451;28;20858;-79
2024/01/10 12:27:12;;;;;;;94.63;31.93;;;;;;;;;;5072454;28;21257;-79
2024/01/10 12:29:39;;;;;;;80.97;31.53;;;;;;;;;;5070651;28;20256;-78
2024/01/10 12:32:08;;;;;;;79.57;32.87;;;;;;;;;;5072204;28;20203;-79
2024/01/10 12:34:40;;;;;;;80.43;32.37;;;;;;;;;;5071785;28;20203;-79
2024/01/10 12:37:07;;;;;;;98.40;34.50;;;;;;;;;;5071814;28;20192;-79
2024/01/10 12:39:35;;;;;;;79.47;29.73;;;;;;;;;;5071837;28;20227;-78
2024/01/10 12:42:02;;;;;;;74.87;30.53;;;;;;;;;;5071110;28;20223;-79
2024/01/10 12:44:32;;;;;;;85.83;31.70;;;;;;;;;;5054431;28;20206;-79
2024/01/10 12:46:59;;;;;;;72.73;29.97;;;;;;;;;;5071037;28;20214;-79
2024/01/10 12:49:27;;;;;;;94.50;33.03;;;;;;;;;;5071752;28;20203;-79
2024/01/10 12:51:54;;;;;;;67.37;28.67;;;;;;;;;;5071929;28;20211;-78
2024/01/10 12:54:22;;;;;;;73.57;29.50;;;;;;;;;;5070659;28;20203;-79
2024/01/10 12:56:50;;;;;;;76.50;31.63;;;;;;;;;;5071840;28;20927;-79
2024/01/10 12:59:17;;;;;;;83.03;30.83;;;;;;;;;;5070514;28;20603;-79
2024/01/10 13:01:44;;;;;;;76.50;31.13;;;;;;;;;;5071671;28;20206;-79
2024/01/10 13:04:12;;;;;;;79.97;29.07;;;;;;;;;;5071839;28;20211;-79
2024/01/10 13:06:40;;;;;;;78.57;30.07;;;;;;;;;;5069885;28;20643;-78
2024/01/10 13:09:09;;;;;;;78.63;31.70;;;;;;;;;;5071142;28;20570;-78
2024/01/10 13:11:36;;;;;;;70.20;30.93;;;;;;;;;;5071615;28;20212;-78
2024/01/10 13:14:03;;;;;;;85.03;31.83;;;;;;;;;;5070528;28;20194;-78
2024/01/10 13:16:30;;;;;;;87.50;32.83;;;;;;;;;;5073025;28;20203;-78
2024/01/10 13:19:08;;;;;;;74.97;28.37;;;;;;;;;;5072235;28;20227;-78
2024/01/10 13:21:35;;;;;;;72.53;28.90;;;;;;;;;;5071630;28;20207;-78
2024/01/10 13:24:03;;;;;;;69.03;28.43;;;;;;;;;;5071779;28;20906;-78
2024/01/10 13:26:30;;;;;;;66.77;26.83;;;;;;;;;;5071423;28;20540;-78
2024/01/10 13:28:58;;;;;;;75.37;29.67;;;;;;;;;;5071316;28;20210;-78
2024/01/10 13:31:25;;;;;;;74.87;30.13;;;;;;;;;;5064728;28;20295;-79
2024/01/10 13:33:52;;;;;;;73.17;30.93;;;;;;;;;;5070905;28;20219;-78
2024/01/10 13:36:22;;;;;;;74.70;29.27;;;;;;;;;;5061911;28;20748;-79
2024/01/10 13:38:49;;;;;;;73.90;28.50;;;;;;;;;;5061512;28;20247;-78
2024/01/10 13:41:16;;;;;;;76.70;29.83;;;;;;;;;;5060737;28;20250;-79
2024/01/10 13:43:43;;;;;;;75.40;30.77;;;;;;;;;;5043794;28;20284;-79
2024/01/10 13:46:10;;;;;;;76.80;29.57;;;;;;;;;;5061698;28;20247;-78
2024/01/10 13:48:38;;;;;;;75.40;29.07;;;;;;;;;;5073457;28;20243;-78
2024/01/10 13:51:05;;;;;;;70.47;29.63;;;;;;;;;;5073643;28;20306;-79
2024/01/10 13:53:33;;;;;;;85.37;31.70;;;;;;;;;;5071104;28;20254;-78
2024/01/10 13:56:00;;;;;;;87.13;30.70;;;;;;;;;;5072868;28;20227;-78
2024/01/10 13:58:28;;;;;;;82.90;31.60;;;;;;;;;;5074051;28;20235;-79
2024/01/10 14:00:55;;;;;;;63.17;26.90;;;;;;;;;;5074000;28;20227;-79
2024/01/10 14:03:23;;;;;;;73.23;28.67;;;;;;;;;;5073311;28;20298;-78
2024/01/10 14:05:50;;;;;;;69.33;27.47;;;;;;;;;;5074373;28;20570;-78
2024/01/10 14:08:18;;;;;;;71.33;27.00;;;;;;;;;;5074278;28;20242;-78
2024/01/10 14:10:44;;;;;;;77.13;30.63;;;;;;;;;;5072968;28;20229;-79
2024/01/10 14:13:12;;;;;;;82.97;28.53;;;;;;;;;;5074039;28;20239;-78
2024/01/10 14:15:39;;;;;;;72.70;27.47;;;;;;;;;;5072863;28;20219;-79
2024/01/10 14:18:06;;;;;;;72.93;27.27;;;;;;;;;;5072172;28;20341;-78
2024/01/10 14:20:35;;;;;;;71.83;26.03;;;;;;;;;;5070544;28;20255;-78
2024/01/10 14:23:04;;;;;;;68.03;26.93;;;;;;;;;;5069485;28;20290;-78